createdAt,value
2022-10-07T00:00:13.433Z,0.00
2022-10-07T00:01:13.440Z,0.00
2022-10-07T00:02:13.426Z,0.00
2022-10-07T00:03:13.380Z,0.00
2022-10-07T00:04:13.371Z,0.00
2022-10-07T00:05:13.375Z,0.00
2022-10-07T00:06:13.382Z,0.00
2022-10-07T00:07:13.356Z,0.00
2022-10-07T00:08:13.333Z,0.00
2022-10-07T00:09:13.337Z,0.00
2022-10-07T00:10:13.323Z,0.00
2022-10-07T00:11:13.316Z,0.00
2022-10-07T00:12:13.323Z,0.00
2022-10-07T00:13:13.295Z,0.00
2022-10-07T00:14:13.286Z,0.00
2022-10-07T00:15:13.276Z,0.00
2022-10-07T00:16:13.343Z,0.00
2022-10-07T00:17:13.269Z,0.00
2022-10-07T00:18:13.271Z,0.00
2022-10-07T00:19:13.247Z,0.00
2022-10-07T00:20:13.237Z,0.00
2022-10-07T00:21:13.228Z,0.00
2022-10-07T00:22:13.232Z,0.00
2022-10-07T00:23:13.219Z,0.00
2022-10-07T00:24:13.222Z,0.00
2022-10-07T00:25:13.203Z,0.00
2022-10-07T00:26:13.190Z,0.00
2022-10-07T00:27:13.180Z,0.00
2022-10-07T00:28:13.245Z,0.00
2022-10-07T00:29:13.160Z,0.00
2022-10-07T00:30:13.205Z,0.00
2022-10-07T00:31:13.195Z,0.00
2022-10-07T00:32:13.139Z,0.00
2022-10-07T00:33:13.139Z,0.00
2022-10-07T00:34:13.137Z,0.00
2022-10-07T00:35:13.110Z,0.00
2022-10-07T00:36:15.085Z,0.00
2022-10-07T00:37:13.108Z,0.00
2022-10-07T00:38:13.092Z,0.00
2022-10-07T00:39:13.088Z,0.00
2022-10-07T00:40:13.089Z,0.00
2022-10-07T00:41:13.067Z,0.00
2022-10-07T00:42:13.080Z,0.00
2022-10-07T00:43:13.050Z,0.00
2022-10-07T00:44:13.052Z,0.00
2022-10-07T00:45:13.039Z,0.00
2022-10-07T00:46:13.093Z,0.00
2022-10-07T00:47:13.021Z,0.00
2022-10-07T00:48:13.018Z,0.00
2022-10-07T00:49:12.988Z,0.00
2022-10-07T00:50:13.002Z,0.00
2022-10-07T00:51:12.980Z,0.00
2022-10-07T00:52:12.971Z,0.00
2022-10-07T00:53:12.964Z,0.00
2022-10-07T00:54:12.969Z,0.00
2022-10-07T00:55:12.953Z,0.00
2022-10-07T00:56:12.944Z,0.00
2022-10-07T00:57:12.936Z,0.00
2022-10-07T00:58:12.920Z,0.00
2022-10-07T00:59:12.915Z,0.00
2022-10-07T01:00:12.946Z,0.00
2022-10-07T01:01:12.936Z,0.00
2022-10-07T01:02:12.953Z,0.00
2022-10-07T01:03:12.887Z,0.00
2022-10-07T01:04:12.878Z,0.00
2022-10-07T01:05:12.853Z,0.00
2022-10-07T01:06:12.862Z,0.00
2022-10-07T01:07:12.835Z,0.00
2022-10-07T01:08:12.835Z,0.00
2022-10-07T01:09:12.816Z,0.00
2022-10-07T01:10:12.816Z,0.00
2022-10-07T01:11:12.809Z,0.00
2022-10-07T01:12:12.820Z,0.00
2022-10-07T01:13:12.798Z,0.00
2022-10-07T01:14:12.799Z,0.00
2022-10-07T01:15:12.783Z,0.00
2022-10-07T01:16:12.786Z,0.00
2022-10-07T01:17:12.784Z,0.00
2022-10-07T01:18:12.770Z,0.00
2022-10-07T01:19:12.729Z,0.00
2022-10-07T01:20:12.743Z,0.00
2022-10-07T01:21:12.724Z,0.00
2022-10-07T01:22:12.723Z,0.00
2022-10-07T01:23:12.705Z,0.00
2022-10-07T01:24:12.712Z,0.00
2022-10-07T01:25:12.680Z,0.00
2022-10-07T01:26:12.672Z,0.00
2022-10-07T01:27:12.663Z,0.00
2022-10-07T01:28:12.691Z,0.00
2022-10-07T01:29:12.642Z,0.00
2022-10-07T01:30:12.653Z,0.00
2022-10-07T01:31:12.683Z,0.00
2022-10-07T01:32:12.638Z,0.00
2022-10-07T01:33:12.619Z,0.00
2022-10-07T01:34:12.605Z,0.00
2022-10-07T01:35:12.626Z,0.00
2022-10-07T01:36:12.619Z,0.00
2022-10-07T01:37:12.576Z,0.00
2022-10-07T01:38:12.574Z,0.00
2022-10-07T01:39:12.565Z,0.00
2022-10-07T01:40:12.570Z,0.00
2022-10-07T01:41:12.551Z,0.00
2022-10-07T01:42:12.562Z,0.00
2022-10-07T01:43:12.529Z,0.00
2022-10-07T01:44:12.532Z,0.00
2022-10-07T01:45:12.526Z,0.00
2022-10-07T01:46:12.569Z,0.00
2022-10-07T01:47:12.490Z,0.00
2022-10-07T01:48:12.525Z,0.00
2022-10-07T01:49:12.469Z,0.00
2022-10-07T01:50:12.473Z,0.00
2022-10-07T01:51:12.475Z,0.00
2022-10-07T01:52:12.465Z,0.00
2022-10-07T01:53:12.455Z,0.00
2022-10-07T01:54:12.463Z,0.00
2022-10-07T01:55:12.422Z,0.00
2022-10-07T01:56:13.101Z,0.00
2022-10-07T01:57:12.417Z,0.00
2022-10-07T01:58:12.403Z,0.00
2022-10-07T01:59:12.407Z,0.00
2022-10-07T02:00:12.425Z,0.00
2022-10-07T02:01:12.390Z,0.00
2022-10-07T02:02:12.365Z,0.00
2022-10-07T02:03:12.355Z,0.00
2022-10-07T02:04:12.366Z,0.00
2022-10-07T02:05:12.337Z,0.00
2022-10-07T02:06:12.369Z,0.00
2022-10-07T02:07:12.333Z,0.00
2022-10-07T02:08:12.317Z,0.00
2022-10-07T02:09:12.297Z,0.00
2022-10-07T02:10:12.298Z,0.00
2022-10-07T02:11:12.278Z,0.00
2022-10-07T02:12:12.311Z,0.00
2022-10-07T02:13:12.269Z,0.00
2022-10-07T02:14:12.276Z,0.00
2022-10-07T02:15:12.251Z,0.00
2022-10-07T02:16:12.359Z,0.00
2022-10-07T02:17:12.244Z,0.00
2022-10-07T02:18:12.263Z,0.00
2022-10-07T02:19:12.210Z,0.00
2022-10-07T02:20:12.224Z,0.00
2022-10-07T02:21:12.191Z,0.00
2022-10-07T02:22:12.204Z,0.00
2022-10-07T02:23:12.173Z,0.00
2022-10-07T02:24:12.197Z,0.00
2022-10-07T02:25:12.167Z,0.00
2022-10-07T02:26:12.167Z,0.00
2022-10-07T02:27:12.149Z,0.00
2022-10-07T02:28:12.275Z,0.00
2022-10-07T02:29:12.124Z,0.00
2022-10-07T02:30:12.139Z,0.00
2022-10-07T02:31:12.138Z,0.00
2022-10-07T02:32:12.098Z,0.00
2022-10-07T02:33:12.102Z,0.00
2022-10-07T02:34:16.263Z,0.00
2022-10-07T02:35:12.069Z,0.00
2022-10-07T02:36:12.077Z,0.00
2022-10-07T02:37:12.049Z,0.00
2022-10-07T02:38:12.061Z,0.00
2022-10-07T02:39:12.037Z,0.00
2022-10-07T02:40:12.730Z,0.00
2022-10-07T02:41:12.031Z,0.00
2022-10-07T02:42:12.045Z,0.00
2022-10-07T02:43:12.001Z,0.00
2022-10-07T02:44:12.006Z,0.00
2022-10-07T02:45:11.996Z,0.00
2022-10-07T02:46:12.062Z,0.00
2022-10-07T02:47:11.979Z,0.00
2022-10-07T02:48:11.975Z,0.00
2022-10-07T02:49:11.955Z,0.00
2022-10-07T02:50:11.956Z,0.00
2022-10-07T02:51:11.936Z,0.00
2022-10-07T02:52:11.922Z,0.00
2022-10-07T02:53:11.925Z,0.00
2022-10-07T02:54:11.937Z,0.00
2022-10-07T02:55:11.907Z,0.00
2022-10-07T02:56:11.898Z,0.00
2022-10-07T02:57:11.882Z,0.00
2022-10-07T02:58:11.877Z,0.00
2022-10-07T02:59:11.855Z,0.00
2022-10-07T03:00:11.897Z,0.00
2022-10-07T03:01:11.864Z,0.00
2022-10-07T03:02:11.850Z,0.00
2022-10-07T03:03:11.900Z,0.00
2022-10-07T03:04:11.831Z,0.00
2022-10-07T03:05:11.821Z,0.00
2022-10-07T03:06:11.821Z,0.00
2022-10-07T03:07:11.802Z,0.00
2022-10-07T03:08:11.803Z,0.00
2022-10-07T03:09:11.769Z,0.00
2022-10-07T03:10:11.783Z,0.00
2022-10-07T03:11:11.749Z,0.00
2022-10-07T03:12:11.790Z,0.00
2022-10-07T03:13:11.738Z,0.00
2022-10-07T03:14:11.744Z,0.00
2022-10-07T03:15:11.721Z,0.00
2022-10-07T03:16:11.774Z,0.00
2022-10-07T03:17:11.702Z,0.00
2022-10-07T03:18:11.734Z,0.00
2022-10-07T03:19:11.682Z,0.00
2022-10-07T03:20:11.699Z,0.00
2022-10-07T03:21:11.676Z,0.00
2022-10-07T03:22:11.676Z,0.00
2022-10-07T03:23:11.644Z,0.00
2022-10-07T03:24:11.675Z,0.00
2022-10-07T03:25:11.625Z,0.00
2022-10-07T03:26:11.625Z,0.00
2022-10-07T03:27:11.614Z,0.00
2022-10-07T03:28:11.663Z,0.00
2022-10-07T03:29:11.611Z,0.00
2022-10-07T03:30:11.610Z,0.00
2022-10-07T03:31:11.660Z,0.00
2022-10-07T03:32:11.588Z,0.00
2022-10-07T03:33:11.560Z,0.00
2022-10-07T03:34:11.571Z,0.00
2022-10-07T03:35:11.543Z,0.00
2022-10-07T03:36:11.562Z,0.00
2022-10-07T03:37:11.519Z,0.00
2022-10-07T03:38:11.519Z,0.00
2022-10-07T03:39:11.512Z,0.00
2022-10-07T03:40:11.513Z,0.00
2022-10-07T03:41:11.498Z,0.00
2022-10-07T03:42:11.494Z,0.00
2022-10-07T03:43:11.475Z,0.00
2022-10-07T03:44:11.475Z,0.00
2022-10-07T03:45:11.459Z,0.00
2022-10-07T03:46:11.479Z,0.00
2022-10-07T03:47:11.482Z,0.00
2022-10-07T03:48:11.444Z,0.00
2022-10-07T03:49:11.429Z,0.00
2022-10-07T03:50:11.428Z,0.00
2022-10-07T03:51:11.394Z,0.00
2022-10-07T03:52:11.394Z,0.00
2022-10-07T03:53:11.375Z,0.00
2022-10-07T03:54:11.395Z,0.00
2022-10-07T03:55:11.366Z,0.00
2022-10-07T03:56:11.363Z,0.00
2022-10-07T03:57:11.354Z,0.00
2022-10-07T03:58:11.339Z,0.00
2022-10-07T03:59:11.338Z,0.00
2022-10-07T04:00:11.361Z,0.00
2022-10-07T04:01:11.308Z,0.00
2022-10-07T04:02:11.329Z,0.00
2022-10-07T04:03:11.366Z,0.00
2022-10-07T04:04:11.302Z,0.00
2022-10-07T04:05:11.282Z,0.00
2022-10-07T04:06:11.278Z,0.00
2022-10-07T04:07:11.262Z,0.00
2022-10-07T04:08:11.263Z,0.00
2022-10-07T04:09:11.243Z,0.00
2022-10-07T04:10:11.244Z,0.00
2022-10-07T04:11:11.224Z,0.00
2022-10-07T04:12:11.231Z,0.00
2022-10-07T04:13:11.204Z,0.00
2022-10-07T04:14:11.205Z,0.00
2022-10-07T04:15:11.196Z,0.00
2022-10-07T04:16:11.235Z,0.00
2022-10-07T04:17:11.163Z,0.00
2022-10-07T04:18:11.313Z,0.00
2022-10-07T04:19:11.153Z,0.00
2022-10-07T04:20:11.158Z,0.00
2022-10-07T04:21:11.134Z,0.00
2022-10-07T04:22:11.124Z,0.00
2022-10-07T04:23:11.130Z,0.00
2022-10-07T04:24:11.123Z,0.00
2022-10-07T04:25:11.123Z,0.00
2022-10-07T04:26:11.099Z,0.00
2022-10-07T04:27:23.459Z,0.00
2022-10-07T04:28:11.102Z,0.00
2022-10-07T04:29:11.080Z,0.00
2022-10-07T04:30:11.092Z,0.00
2022-10-07T04:31:11.075Z,0.00
2022-10-07T04:32:11.058Z,0.00
2022-10-07T04:33:11.029Z,0.00
2022-10-07T04:34:11.019Z,0.00
2022-10-07T04:35:11.018Z,0.00
2022-10-07T04:36:11.036Z,0.00
2022-10-07T04:37:11.015Z,0.00
2022-10-07T04:38:10.982Z,0.00
2022-10-07T04:39:10.993Z,0.00
2022-10-07T04:40:10.984Z,0.00
2022-10-07T04:41:10.976Z,0.00
2022-10-07T04:42:10.962Z,0.00
2022-10-07T04:43:10.950Z,0.00
2022-10-07T04:44:10.932Z,0.00
2022-10-07T04:45:10.932Z,0.00
2022-10-07T04:46:10.933Z,0.00
2022-10-07T04:47:11.013Z,0.00
2022-10-07T04:48:10.915Z,0.00
2022-10-07T04:49:10.893Z,0.00
2022-10-07T04:50:10.897Z,0.00
2022-10-07T04:51:10.903Z,0.00
2022-10-07T04:52:10.864Z,0.00
2022-10-07T04:53:10.869Z,0.00
2022-10-07T04:54:10.869Z,0.00
2022-10-07T04:55:10.853Z,0.00
2022-10-07T04:56:10.826Z,0.00
2022-10-07T04:57:10.816Z,0.00
2022-10-07T04:58:10.821Z,0.00
2022-10-07T04:59:10.818Z,0.00
2022-10-07T05:00:10.798Z,0.00
2022-10-07T05:01:10.919Z,0.00
2022-10-07T05:02:10.825Z,0.00
2022-10-07T05:03:10.783Z,0.00
2022-10-07T05:04:10.757Z,0.00
2022-10-07T05:05:10.755Z,0.00
2022-10-07T05:06:10.752Z,0.00
2022-10-07T05:07:10.737Z,0.00
2022-10-07T05:08:10.711Z,0.00
2022-10-07T05:09:10.711Z,0.00
2022-10-07T05:10:10.715Z,0.00
2022-10-07T05:11:10.691Z,0.00
2022-10-07T05:12:10.706Z,0.00
2022-10-07T05:13:10.673Z,0.00
2022-10-07T05:14:10.676Z,4.00
2022-10-07T05:15:10.653Z,0.00
2022-10-07T05:16:10.708Z,0.00
2022-10-07T05:17:10.635Z,4.00
2022-10-07T05:18:10.647Z,4.00
2022-10-07T05:19:10.641Z,4.00
2022-10-07T05:20:10.613Z,4.00
2022-10-07T05:21:10.628Z,8.00
2022-10-07T05:22:10.600Z,4.00
2022-10-07T05:23:10.585Z,8.00
2022-10-07T05:24:10.609Z,8.00
2022-10-07T05:25:10.567Z,8.00
2022-10-07T05:26:10.576Z,8.00
2022-10-07T05:27:10.560Z,8.00
2022-10-07T05:28:10.585Z,12.00
2022-10-07T05:29:10.527Z,12.00
2022-10-07T05:30:10.541Z,16.00
2022-10-07T05:31:10.586Z,12.00
2022-10-07T05:32:10.550Z,16.00
2022-10-07T05:33:10.504Z,20.00
2022-10-07T05:34:10.479Z,24.00
2022-10-07T05:35:10.495Z,20.00
2022-10-07T05:36:10.479Z,24.00
2022-10-07T05:37:10.460Z,32.00
2022-10-07T05:38:10.441Z,32.00
2022-10-07T05:39:10.458Z,32.00
2022-10-07T05:40:10.435Z,36.00
2022-10-07T05:41:10.435Z,44.00
2022-10-07T05:42:10.413Z,48.00
2022-10-07T05:43:10.402Z,52.00
2022-10-07T05:44:10.407Z,52.00
2022-10-07T05:45:10.397Z,52.00
2022-10-07T05:46:10.453Z,52.00
2022-10-07T05:47:10.364Z,56.00
2022-10-07T05:48:10.388Z,60.00
2022-10-07T05:49:10.354Z,64.00
2022-10-07T05:50:10.348Z,60.00
2022-10-07T05:51:10.359Z,60.00
2022-10-07T05:52:10.325Z,60.00
2022-10-07T05:53:10.329Z,64.00
2022-10-07T05:54:10.341Z,72.00
2022-10-07T05:55:10.301Z,76.00
2022-10-07T05:56:10.287Z,72.00
2022-10-07T05:57:10.287Z,60.00
2022-10-07T05:58:10.268Z,60.00
2022-10-07T05:59:10.270Z,64.00
2022-10-07T06:00:10.268Z,76.00
2022-10-07T06:01:14.070Z,80.00
2022-10-07T06:02:10.331Z,88.00
2022-10-07T06:03:10.369Z,92.00
2022-10-07T06:04:10.220Z,96.00
2022-10-07T06:05:10.209Z,112.00
2022-10-07T06:06:10.218Z,120.00
2022-10-07T06:07:10.190Z,124.00
2022-10-07T06:08:10.181Z,128.00
2022-10-07T06:09:10.196Z,140.00
2022-10-07T06:10:10.181Z,140.00
2022-10-07T06:11:10.162Z,128.00
2022-10-07T06:12:10.186Z,124.00
2022-10-07T06:13:10.158Z,128.00
2022-10-07T06:14:10.131Z,140.00
2022-10-07T06:15:10.125Z,164.00
2022-10-07T06:16:10.186Z,184.00
2022-10-07T06:17:10.103Z,188.00
2022-10-07T06:18:10.118Z,180.00
2022-10-07T06:19:10.098Z,168.00
2022-10-07T06:20:10.098Z,160.00
2022-10-07T06:21:10.086Z,164.00
2022-10-07T06:22:10.055Z,172.00
2022-10-07T06:23:10.047Z,188.00
2022-10-07T06:24:10.060Z,216.00
2022-10-07T06:25:10.041Z,240.00
2022-10-07T06:26:10.017Z,248.00
2022-10-07T06:27:10.029Z,252.00
2022-10-07T06:28:10.023Z,256.00
2022-10-07T06:29:10.009Z,260.00
2022-10-07T06:30:10.002Z,284.00
2022-10-07T06:31:10.082Z,308.00
2022-10-07T06:32:09.980Z,312.00
2022-10-07T06:33:09.974Z,308.00
2022-10-07T06:34:09.964Z,300.00
2022-10-07T06:35:09.942Z,288.00
2022-10-07T06:36:09.950Z,292.00
2022-10-07T06:37:09.934Z,300.00
2022-10-07T06:38:09.925Z,308.00
2022-10-07T06:39:09.901Z,316.00
2022-10-07T06:40:09.907Z,332.00
2022-10-07T06:41:09.895Z,356.00
2022-10-07T06:42:09.894Z,392.00
2022-10-07T06:43:09.872Z,428.00
2022-10-07T06:44:09.870Z,448.00
2022-10-07T06:45:09.869Z,448.00
2022-10-07T06:46:09.967Z,420.00
2022-10-07T06:47:11.980Z,376.00
2022-10-07T06:48:09.825Z,348.00
2022-10-07T06:49:09.829Z,328.00
2022-10-07T06:50:09.819Z,324.00
2022-10-07T06:51:09.809Z,336.00
2022-10-07T06:52:09.803Z,380.00
2022-10-07T06:53:09.778Z,456.00
2022-10-07T06:54:09.800Z,556.00
2022-10-07T06:55:09.758Z,644.00
2022-10-07T06:56:09.747Z,676.00
2022-10-07T06:57:26.710Z,640.00
2022-10-07T06:58:11.782Z,580.00
2022-10-07T06:59:09.728Z,552.00
2022-10-07T07:00:09.734Z,560.00
2022-10-07T07:01:09.785Z,600.00
2022-10-07T07:02:09.745Z,648.00
2022-10-07T07:03:09.691Z,668.00
2022-10-07T07:04:09.679Z,656.00
2022-10-07T07:05:09.672Z,648.00
2022-10-07T07:06:09.681Z,644.00
2022-10-07T07:07:09.664Z,644.00
2022-10-07T07:08:09.641Z,640.00
2022-10-07T07:09:09.632Z,636.00
2022-10-07T07:10:09.641Z,620.00
2022-10-07T07:11:09.637Z,596.00
2022-10-07T07:12:09.614Z,596.00
2022-10-07T07:13:09.705Z,640.00
2022-10-07T07:14:09.590Z,708.00
2022-10-07T07:15:09.584Z,732.00
2022-10-07T07:16:09.583Z,716.00
2022-10-07T07:17:09.741Z,692.00
2022-10-07T07:18:09.555Z,652.00
2022-10-07T07:19:09.569Z,636.00
2022-10-07T07:20:09.536Z,644.00
2022-10-07T07:21:09.529Z,652.00
2022-10-07T07:22:09.536Z,692.00
2022-10-07T07:23:09.531Z,744.00
2022-10-07T07:24:09.521Z,780.00
2022-10-07T07:25:09.509Z,804.00
2022-10-07T07:26:09.492Z,832.00
2022-10-07T07:27:09.492Z,868.00
2022-10-07T07:28:09.523Z,888.00
2022-10-07T07:29:09.472Z,908.00
2022-10-07T07:30:09.483Z,908.00
2022-10-07T07:31:09.569Z,908.00
2022-10-07T07:32:09.433Z,924.00
2022-10-07T07:33:09.449Z,916.00
2022-10-07T07:34:09.411Z,884.00
2022-10-07T07:35:09.409Z,856.00
2022-10-07T07:36:09.402Z,844.00
2022-10-07T07:37:09.391Z,864.00
2022-10-07T07:38:09.385Z,896.00
2022-10-07T07:39:09.385Z,964.00
2022-10-07T07:40:09.352Z,1048.00
2022-10-07T07:41:09.351Z,1112.00
2022-10-07T07:42:09.357Z,1152.00
2022-10-07T07:43:09.347Z,1152.00
2022-10-07T07:44:09.322Z,1120.00
2022-10-07T07:45:09.314Z,1068.00
2022-10-07T07:46:09.353Z,996.00
2022-10-07T07:47:09.309Z,956.00
2022-10-07T07:48:09.305Z,904.00
2022-10-07T07:49:09.298Z,840.00
2022-10-07T07:50:09.267Z,776.00
2022-10-07T07:51:09.256Z,748.00
2022-10-07T07:52:09.261Z,748.00
2022-10-07T07:53:09.248Z,764.00
2022-10-07T07:54:09.247Z,788.00
2022-10-07T07:55:09.226Z,828.00
2022-10-07T07:56:09.221Z,872.00
2022-10-07T07:57:09.225Z,892.00
2022-10-07T07:58:11.689Z,912.00
2022-10-07T07:59:09.189Z,932.00
2022-10-07T08:00:09.201Z,944.00
2022-10-07T08:01:09.230Z,948.00
2022-10-07T08:02:09.229Z,952.00
2022-10-07T08:03:09.152Z,968.00
2022-10-07T08:04:09.152Z,992.00
2022-10-07T08:05:09.149Z,1016.00
2022-10-07T08:06:09.142Z,1024.00
2022-10-07T08:07:09.112Z,1000.00
2022-10-07T08:08:09.119Z,996.00
2022-10-07T08:09:09.093Z,996.00
2022-10-07T08:10:09.097Z,1020.00
2022-10-07T08:11:09.084Z,1052.00
2022-10-07T08:12:09.096Z,1092.00
2022-10-07T08:13:09.077Z,1140.00
2022-10-07T08:14:09.044Z,1148.00
2022-10-07T08:15:09.045Z,1132.00
2022-10-07T08:16:09.099Z,1128.00
2022-10-07T08:17:09.026Z,1144.00
2022-10-07T08:18:09.027Z,1184.00
2022-10-07T08:19:09.020Z,1208.00
2022-10-07T08:20:09.007Z,1212.00
2022-10-07T08:21:09.019Z,1208.00
2022-10-07T08:22:08.977Z,1200.00
2022-10-07T08:23:08.981Z,1220.00
2022-10-07T08:24:08.982Z,1288.00
2022-10-07T08:25:08.970Z,1328.00
2022-10-07T08:26:08.938Z,1340.00
2022-10-07T08:27:08.955Z,1344.00
2022-10-07T08:28:08.992Z,1344.00
2022-10-07T08:29:08.924Z,1320.00
2022-10-07T08:30:08.933Z,1288.00
2022-10-07T08:31:08.995Z,1300.00
2022-10-07T08:32:08.904Z,1308.00
2022-10-07T08:33:08.896Z,1308.00
2022-10-07T08:34:08.882Z,1284.00
2022-10-07T08:35:08.861Z,1292.00
2022-10-07T08:36:08.863Z,1296.00
2022-10-07T08:37:08.842Z,1308.00
2022-10-07T08:38:12.472Z,1316.00
2022-10-07T08:39:08.917Z,1328.00
2022-10-07T08:40:08.837Z,1352.00
2022-10-07T08:41:08.803Z,1408.00
2022-10-07T08:42:08.984Z,1416.00
2022-10-07T08:43:08.795Z,1368.00
2022-10-07T08:44:12.126Z,1352.00
2022-10-07T08:45:08.775Z,1380.00
2022-10-07T08:46:08.791Z,1376.00
2022-10-07T08:47:08.757Z,1384.00
2022-10-07T08:48:08.770Z,1412.00
2022-10-07T08:49:08.737Z,1424.00
2022-10-07T08:50:08.740Z,1428.00
2022-10-07T08:51:08.730Z,1420.00
2022-10-07T08:52:08.719Z,1384.00
2022-10-07T08:53:08.701Z,1392.00
2022-10-07T08:54:08.722Z,1420.00
2022-10-07T08:55:08.679Z,1428.00
2022-10-07T08:56:08.702Z,1440.00
2022-10-07T08:57:08.660Z,1432.00
2022-10-07T08:58:08.673Z,1428.00
2022-10-07T08:59:08.655Z,1416.00
2022-10-07T09:00:08.674Z,1400.00
2022-10-07T09:01:08.673Z,1368.00
2022-10-07T09:02:08.635Z,1300.00
2022-10-07T09:04:34.557Z,1468.00
2022-10-07T09:05:34.568Z,1428.00
2022-10-07T09:06:34.538Z,1384.00
2022-10-07T09:07:34.541Z,1408.00
2022-10-07T09:08:34.520Z,1416.00
2022-10-07T09:09:34.510Z,1468.00
2022-10-07T09:10:34.510Z,1508.00
2022-10-07T09:11:34.514Z,1532.00
2022-10-07T09:12:34.503Z,1556.00
2022-10-07T09:13:34.471Z,1572.00
2022-10-07T09:14:34.478Z,1644.00
2022-10-07T09:15:34.515Z,1656.00
2022-10-07T09:16:34.465Z,1664.00
2022-10-07T09:17:35.369Z,1660.00
2022-10-07T09:18:34.433Z,1664.00
2022-10-07T09:19:34.424Z,1688.00
2022-10-07T09:20:34.414Z,1756.00
2022-10-07T09:21:34.402Z,1836.00
2022-10-07T09:22:34.402Z,1872.00
2022-10-07T09:23:34.424Z,1936.00
2022-10-07T09:24:34.434Z,2028.00
2022-10-07T09:25:34.379Z,2088.00
2022-10-07T09:26:34.369Z,2064.00
2022-10-07T09:27:34.360Z,2108.00
2022-10-07T09:28:34.381Z,2100.00
2022-10-07T09:29:34.347Z,2032.00
2022-10-07T09:30:34.326Z,1944.00
2022-10-07T09:31:34.348Z,1892.00
2022-10-07T09:32:34.308Z,1856.00
2022-10-07T09:33:34.297Z,1804.00
2022-10-07T09:34:34.310Z,1788.00
2022-10-07T09:35:34.331Z,1784.00
2022-10-07T09:36:34.279Z,1760.00
2022-10-07T09:37:34.270Z,1712.00
2022-10-07T09:38:34.271Z,1660.00
2022-10-07T09:39:34.239Z,1652.00
2022-10-07T09:40:34.230Z,1656.00
2022-10-07T09:41:34.231Z,1680.00
2022-10-07T09:42:34.225Z,1744.00
2022-10-07T09:43:34.216Z,1772.00
2022-10-07T09:44:34.225Z,1764.00
2022-10-07T09:45:34.197Z,1836.00
2022-10-07T09:46:34.253Z,1932.00
2022-10-07T09:47:34.196Z,2040.00
2022-10-07T09:48:34.175Z,2112.00
2022-10-07T09:49:34.143Z,2080.00
2022-10-07T09:50:34.144Z,2096.00
2022-10-07T09:51:34.124Z,2140.00
2022-10-07T09:52:34.138Z,2164.00
2022-10-07T09:53:34.130Z,2164.00
2022-10-07T09:54:34.119Z,2168.00
2022-10-07T09:55:34.109Z,2204.00
2022-10-07T09:56:34.099Z,2248.00
2022-10-07T09:57:34.089Z,2292.00
2022-10-07T09:58:34.077Z,2368.00
2022-10-07T09:59:34.078Z,2416.00
2022-10-07T10:00:34.070Z,2512.00
2022-10-07T10:01:34.051Z,2576.00
2022-10-07T10:02:34.198Z,2756.00
2022-10-07T10:03:34.099Z,2788.00
2022-10-07T10:04:34.033Z,2628.00
2022-10-07T10:05:34.034Z,2668.00
2022-10-07T10:06:34.014Z,2680.00
2022-10-07T10:07:34.005Z,2700.00
2022-10-07T10:08:34.029Z,2624.00
2022-10-07T10:09:33.973Z,2536.00
2022-10-07T10:10:33.975Z,2516.00
2022-10-07T10:11:33.975Z,2464.00
2022-10-07T10:12:34.882Z,2368.00
2022-10-07T10:13:33.935Z,2388.00
2022-10-07T10:14:33.933Z,2404.00
2022-10-07T10:15:33.950Z,2380.00
2022-10-07T10:16:33.935Z,2412.00
2022-10-07T10:17:33.924Z,2568.00
2022-10-07T10:18:33.910Z,2748.00
2022-10-07T10:19:37.185Z,2888.00
2022-10-07T10:20:33.885Z,2920.00
2022-10-07T10:21:33.866Z,2876.00
2022-10-07T10:22:33.856Z,2884.00
2022-10-07T10:23:33.857Z,3028.00
2022-10-07T10:24:33.859Z,3096.00
2022-10-07T10:25:33.826Z,3048.00
2022-10-07T10:26:34.404Z,3044.00
2022-10-07T10:27:33.807Z,3052.00
2022-10-07T10:28:33.853Z,3024.00
2022-10-07T10:29:33.810Z,2948.00
2022-10-07T10:30:33.803Z,2852.00
2022-10-07T10:31:33.837Z,2872.00
2022-10-07T10:32:33.769Z,2920.00
2022-10-07T10:33:33.765Z,2900.00
2022-10-07T10:34:33.772Z,2948.00
2022-10-07T10:35:33.751Z,3004.00
2022-10-07T10:36:33.731Z,3028.00
2022-10-07T10:37:33.722Z,3100.00
2022-10-07T10:38:33.711Z,3196.00
2022-10-07T10:39:33.715Z,3184.00
2022-10-07T10:40:33.706Z,3232.00
2022-10-07T10:41:33.706Z,3336.00
2022-10-07T10:42:33.686Z,3312.00
2022-10-07T10:43:33.840Z,3248.00
2022-10-07T10:44:33.682Z,3276.00
2022-10-07T10:45:33.667Z,3280.00
2022-10-07T10:46:33.696Z,3304.00
2022-10-07T10:47:33.638Z,3340.00
2022-10-07T10:48:33.630Z,3328.00
2022-10-07T10:49:33.634Z,3328.00
2022-10-07T10:50:33.605Z,3320.00
2022-10-07T10:51:33.595Z,3332.00
2022-10-07T10:52:33.596Z,3368.00
2022-10-07T10:53:33.611Z,3456.00
2022-10-07T10:54:33.581Z,3580.00
2022-10-07T10:55:33.571Z,3460.00
2022-10-07T10:56:33.572Z,3528.00
2022-10-07T10:57:33.538Z,3416.00
2022-10-07T10:58:33.539Z,3228.00
2022-10-07T10:59:33.542Z,3048.00
2022-10-07T11:00:33.598Z,2984.00
2022-10-07T11:01:33.637Z,3028.00
2022-10-07T11:02:33.582Z,3260.00
2022-10-07T11:03:33.514Z,3256.00
2022-10-07T11:04:33.494Z,3252.00
2022-10-07T11:05:33.481Z,3072.00
2022-10-07T11:06:33.477Z,3008.00
2022-10-07T11:07:33.476Z,2896.00
2022-10-07T11:08:38.102Z,2832.00
2022-10-07T11:09:33.432Z,2680.00
2022-10-07T11:10:33.433Z,2496.00
2022-10-07T11:11:33.448Z,2544.00
2022-10-07T11:12:33.416Z,2204.00
2022-10-07T11:13:33.407Z,2200.00
2022-10-07T11:14:33.406Z,2192.00
2022-10-07T11:15:33.390Z,2240.00
2022-10-07T11:16:33.390Z,2224.00
2022-10-07T11:17:33.397Z,2204.00
2022-10-07T11:18:33.371Z,2324.00
2022-10-07T11:19:33.360Z,2476.00
2022-10-07T11:20:33.347Z,2692.00
2022-10-07T11:21:33.328Z,2804.00
2022-10-07T11:22:33.341Z,2864.00
2022-10-07T11:23:33.342Z,2980.00
2022-10-07T11:24:33.322Z,2920.00
2022-10-07T11:25:33.308Z,2992.00
2022-10-07T11:26:34.898Z,2968.00
2022-10-07T11:27:33.293Z,2880.00
2022-10-07T11:28:33.379Z,2820.00
2022-10-07T11:29:33.271Z,2752.00
2022-10-07T11:30:33.251Z,2724.00
2022-10-07T11:31:33.264Z,2720.00
2022-10-07T11:32:33.243Z,2688.00
2022-10-07T11:33:33.222Z,2636.00
2022-10-07T11:34:33.236Z,2480.00
2022-10-07T11:35:33.212Z,2144.00
2022-10-07T11:36:33.216Z,2132.00
2022-10-07T11:37:33.206Z,2420.00
2022-10-07T11:38:33.198Z,2288.00
2022-10-07T11:39:33.188Z,2460.00
2022-10-07T11:40:33.164Z,2412.00
2022-10-07T11:41:33.179Z,2368.00
2022-10-07T11:42:33.160Z,2076.00
2022-10-07T11:43:33.151Z,1880.00
2022-10-07T11:44:33.154Z,1884.00
2022-10-07T11:45:33.117Z,1964.00
2022-10-07T11:46:33.194Z,2140.00
2022-10-07T11:47:33.115Z,2040.00
2022-10-07T11:48:33.114Z,2140.00
2022-10-07T11:49:33.088Z,1928.00
2022-10-07T11:50:33.080Z,1716.00
2022-10-07T11:51:33.086Z,1540.00
2022-10-07T11:52:37.999Z,1476.00
2022-10-07T11:53:33.071Z,1544.00
2022-10-07T11:54:33.053Z,1556.00
2022-10-07T11:55:33.044Z,1432.00
2022-10-07T11:56:33.021Z,1360.00
2022-10-07T11:57:33.026Z,1556.00
2022-10-07T11:58:33.014Z,1596.00
2022-10-07T11:59:33.002Z,1616.00
2022-10-07T12:00:33.005Z,1520.00
2022-10-07T12:01:33.028Z,1536.00
2022-10-07T12:02:33.105Z,1568.00
2022-10-07T12:03:33.067Z,1616.00
2022-10-07T12:04:32.954Z,1712.00
2022-10-07T12:05:32.956Z,1776.00
2022-10-07T12:06:32.935Z,1748.00
2022-10-07T12:07:32.948Z,1756.00
2022-10-07T12:08:32.924Z,1800.00
2022-10-07T12:09:32.920Z,1832.00
2022-10-07T12:10:32.906Z,2000.00
2022-10-07T12:11:32.915Z,2208.00
2022-10-07T12:12:32.902Z,2376.00
2022-10-07T12:13:32.880Z,2380.00
2022-10-07T12:14:32.881Z,2360.00
2022-10-07T12:15:32.858Z,2248.00
2022-10-07T12:16:32.970Z,2204.00
2022-10-07T12:17:32.858Z,2280.00
2022-10-07T12:18:32.850Z,2276.00
2022-10-07T12:19:32.881Z,2244.00
2022-10-07T12:20:32.824Z,2228.00
2022-10-07T12:21:32.814Z,2204.00
2022-10-07T12:22:32.814Z,2160.00
2022-10-07T12:23:32.801Z,2140.00
2022-10-07T12:24:32.782Z,2200.00
2022-10-07T12:25:32.776Z,2172.00
2022-10-07T12:26:32.762Z,2124.00
2022-10-07T12:27:32.768Z,2064.00
2022-10-07T12:28:32.798Z,1984.00
2022-10-07T12:29:32.753Z,1920.00
2022-10-07T12:30:32.743Z,1876.00
2022-10-07T12:31:32.750Z,1900.00
2022-10-07T12:32:32.718Z,1924.00
2022-10-07T12:33:32.696Z,1772.00
2022-10-07T12:34:32.696Z,1672.00
2022-10-07T12:35:32.709Z,1636.00
2022-10-07T12:36:32.684Z,1624.00
2022-10-07T12:37:32.666Z,1612.00
2022-10-07T12:38:32.656Z,1632.00
2022-10-07T12:39:32.661Z,1604.00
2022-10-07T12:40:32.648Z,1704.00
2022-10-07T12:41:36.414Z,1696.00
2022-10-07T12:42:32.645Z,1660.00